Aérodrome :
LOGIN :

S'inscrire | Disclaimer

   EN    FR    IT 

 










Légende :    VFR   VFR Marginal   IFR   IFR Intensif   IFR Très Intensif
Visi : 
Plafond : 
>= 8 km
>= 3000ft
5 à 8 km
1000 à 3000 ft
1500m à 5 km
500 à 1000 ft
800 à 1500m
200 à 500 ft
< 800m
< 200 ft
Symboles :   Orages  Brouillard  Fortes neiges  Fortes précipitations  Vent > 20 kt
SIGMETs :   Divers  Orages  Givrage  Turbulence  Onde Orograph.  Cendres Volcan.






- Altitude de l'aérodrome : 49 ft
- Code IATA : GLZ


EHGR - Gilze-Rijen Airbase

DERNIER METAR :
  • 010425Z AUTO 02001KT 9999 NCD M04/M05 Q1025 BLU

METARs EXPIRÉS :
  • 010355Z AUTO 02001KT 9999 NCD M03/M04 Q1025 BLU
  • 010325Z AUTO 02001KT 9999 NCD M02/M04 Q1025 BLU
  • 010255Z AUTO 02001KT 9999 NCD M02/M04 Q1025 BLU
  • 010225Z AUTO 02001KT 9999 NCD M02/M04 Q1026 BLU
  • 010155Z AUTO 06001KT 9999 NCD M02/M04 Q1026 BLU

TAF TAF EHGR
Valide du 31 à 17h jusqu'au 01 à 05h UTC


311602Z 3117/0105 05005KT CAVOK
BECMG 0100/0103 VRB02KT



MET'MAP, la Météo Aéronautique d'un coup d'oeil ! - Copyright ORBIFLY Décembre 2007 - Disclaimer

ORBIFLY MET'MAP TEAM :

Programmation & Développement : Alexandra Zaïnal
Sur une idée originale de : Baudouin d'Aumeries
Assistance à la programmation : Marc-Olivier Méhu
Soutien technique & logistique : Manuel Goepfert

Contact : metmap@orbifly.com




SOURCES & CREDITS :

   NOAA